TimeCDT,TemperatureF,Dew PointF,Humidity,Sea Level PressureIn,VisibilityMPH,Wind Direction,Wind SpeedMPH,Gust SpeedMPH,PrecipitationIn,Events,Conditions,WindDirDegrees,DateUTC
12:53 AM,61.0,55.0,81,30.08,10.0,SSE,3.5,-,N/A,,Overcast,160,2012-10-10 05:53:00
1:53 AM,61.0,55.0,81,30.07,10.0,SSE,3.5,-,N/A,,Overcast,160,2012-10-10 06:53:00
2:53 AM,61.0,54.0,78,30.07,10.0,Calm,Calm,-,N/A,,Overcast,0,2012-10-10 07:53:00
3:53 AM,61.0,55.0,81,30.07,10.0,SSE,3.5,-,N/A,,Overcast,160,2012-10-10 08:53:00
4:53 AM,61.0,55.0,81,30.08,10.0,Calm,Calm,-,N/A,,Mostly Cloudy,0,2012-10-10 09:53:00
5:53 AM,61.0,55.0,81,30.10,10.0,Calm,Calm,-,N/A,,Overcast,0,2012-10-10 10:53:00
6:53 AM,62.1,57.0,84,30.12,10.0,Calm,Calm,-,N/A,,Overcast,0,2012-10-10 11:53:00
7:53 AM,62.1,57.0,84,30.14,10.0,Calm,Calm,-,0.00,,Overcast,0,2012-10-10 12:53:00
8:53 AM,64.0,57.0,78,30.15,10.0,Calm,Calm,-,N/A,,Mostly Cloudy,0,2012-10-10 13:53:00
9:53 AM,68.0,59.0,73,30.17,10.0,Calm,Calm,-,N/A,,Overcast,0,2012-10-10 14:53:00
10:53 AM,70.0,60.1,71,30.18,10.0,Variable,4.6,-,N/A,,Overcast,0,2012-10-10 15:53:00
11:53 AM,73.0,61.0,66,30.18,10.0,WNW,8.1,-,N/A,,Mostly Cloudy,290,2012-10-10 16:53:00
12:53 PM,77.0,62.1,60,30.16,10.0,NW,8.1,-,N/A,,Clear,310,2012-10-10 17:53:00
1:53 PM,78.1,62.1,58,30.13,10.0,WNW,5.8,-,N/A,,Clear,290,2012-10-10 18:53:00
2:53 PM,80.1,62.1,54,30.11,10.0,North,6.9,-,N/A,,Mostly Cloudy,10,2012-10-10 19:53:00
3:53 PM,79.0,61.0,54,30.11,10.0,North,3.5,-,N/A,,Scattered Clouds,10,2012-10-10 20:53:00
4:53 PM,78.1,60.1,54,30.11,10.0,Variable,4.6,-,N/A,,Clear,0,2012-10-10 21:53:00
5:53 PM,75.9,60.1,58,30.11,10.0,North,4.6,-,N/A,,Scattered Clouds,350,2012-10-10 22:53:00
6:53 PM,72.0,61.0,68,30.12,10.0,Calm,Calm,-,N/A,,Clear,0,2012-10-10 23:53:00
7:53 PM,69.1,60.1,73,30.14,10.0,Calm,Calm,-,N/A,,Clear,0,2012-10-11 00:53:00
8:53 PM,66.0,59.0,78,30.17,10.0,Calm,Calm,-,N/A,,Clear,0,2012-10-11 01:53:00
9:53 PM,64.9,57.9,78,30.18,10.0,NNE,3.5,-,N/A,,Clear,30,2012-10-11 02:53:00
10:53 PM,64.0,57.9,80,30.19,10.0,Calm,Calm,-,N/A,,Clear,0,2012-10-11 03:53:00
11:53 PM,63.0,57.9,84,30.18,10.0,NE,3.5,-,N/A,,Clear,40,2012-10-11 04:53:00